Time;durP1;ratioP1;P1;durP2;ratioP2;P2;SDS_P1;SDS_P2;PMS_P1;PMS_P2;Temp;Humidity;BMP_temperature;BMP_pressure;BME280_temperature;BME280_humidity;BME280_pressure;Samples;Min_cycle;Max_cycle;Signal;HPM_P1;HPM_P2
2024/04/16 00:00:27;;;;;;;4.47;1.00;;;18.10;71.00;;;;;;5428557;26;20014;-59
2024/04/16 00:02:53;;;;;;;4.25;0.93;;;18.10;71.00;;;;;;5419465;26;20015;-59
2024/04/16 00:05:18;;;;;;;2.92;0.90;;;18.10;71.00;;;;;;5437590;26;19995;-59
2024/04/16 00:07:44;;;;;;;2.28;0.82;;;18.20;71.10;;;;;;5436649;26;20355;-59
2024/04/16 00:10:11;;;;;;;3.25;0.90;;;18.10;71.10;;;;;;5433268;26;20010;-59
2024/04/16 00:12:36;;;;;;;3.30;0.93;;;18.10;71.10;;;;;;5428655;26;20009;-58
2024/04/16 00:15:02;;;;;;;3.35;0.93;;;18.10;71.10;;;;;;5430498;26;20011;-59
2024/04/16 00:17:28;;;;;;;2.95;1.00;;;18.10;71.10;;;;;;5422171;26;19991;-59
2024/04/16 00:19:56;;;;;;;3.72;0.90;;;18.10;71.10;;;;;;5435059;26;20078;-59
2024/04/16 00:22:22;;;;;;;3.47;1.02;;;18.10;71.20;;;;;;5433492;26;20469;-58
2024/04/16 00:24:48;;;;;;;3.40;1.00;;;18.00;71.20;;;;;;5441675;26;19999;-58
2024/04/16 00:27:13;;;;;;;2.72;1.00;;;18.00;71.20;;;;;;5439533;26;20043;-59
2024/04/16 00:29:39;;;;;;;3.28;1.00;;;18.00;71.20;;;;;;5437578;26;20006;-59
2024/04/16 00:32:05;;;;;;;2.58;0.90;;;18.00;71.20;;;;;;5438741;26;19995;-58
2024/04/16 00:34:31;;;;;;;4.60;1.08;;;18.00;71.20;;;;;;5438983;26;20311;-59
2024/04/16 00:36:56;;;;;;;2.67;0.90;;;18.00;71.30;;;;;;5439950;26;20108;-59
2024/04/16 00:39:23;;;;;;;3.50;0.95;;;18.00;71.20;;;;;;5441400;26;20433;-59
2024/04/16 00:41:48;;;;;;;1.92;0.80;;;18.00;71.20;;;;;;5442025;26;20010;-58
2024/04/16 00:44:14;;;;;;;4.47;1.10;;;18.00;71.20;;;;;;5442447;26;19999;-59
2024/04/16 00:46:39;;;;;;;3.15;0.90;;;18.00;71.20;;;;;;5434110;26;20032;-58
2024/04/16 00:49:07;;;;;;;5.45;1.08;;;18.00;71.20;;;;;;5438777;26;20003;-59
2024/04/16 00:51:34;;;;;;;4.07;1.08;;;18.00;71.20;;;;;;5434504;26;19995;-58
2024/04/16 00:54:02;;;;;;;3.50;0.90;;;18.00;71.20;;;;;;5437596;26;20015;-59
2024/04/16 00:56:30;;;;;;;2.88;0.93;;;18.00;71.20;;;;;;5417446;26;20331;-59
2024/04/16 00:58:56;;;;;;;5.78;1.20;;;18.00;71.20;;;;;;5428985;26;20008;-58
2024/04/16 01:01:22;;;;;;;5.57;1.00;;;18.00;71.20;;;;;;5426113;26;20003;-58
2024/04/16 01:03:49;;;;;;;3.58;0.95;;;18.00;71.40;;;;;;5429406;26;20000;-58
2024/04/16 01:06:15;;;;;;;3.35;0.90;;;17.90;71.40;;;;;;5421543;26;20015;-58
2024/04/16 01:08:41;;;;;;;4.55;1.10;;;17.90;71.40;;;;;;5425884;26;19996;-58
2024/04/16 01:11:07;;;;;;;3.08;1.10;;;17.90;71.40;;;;;;5435480;26;20506;-58
2024/04/16 01:13:32;;;;;;;3.88;1.00;;;17.90;71.40;;;;;;5429838;26;20003;-58
2024/04/16 01:15:58;;;;;;;2.47;1.02;;;17.90;71.40;;;;;;5433125;26;20003;-58
2024/04/16 01:18:23;;;;;;;3.58;1.10;;;17.90;71.40;;;;;;5425094;26;20050;-59
2024/04/16 01:20:49;;;;;;;5.10;1.10;;;17.90;71.40;;;;;;5433398;26;20000;-58
2024/04/16 01:23:17;;;;;;;4.13;0.93;;;17.90;71.30;;;;;;5424988;26;20002;-58
2024/04/16 01:25:44;;;;;;;2.03;0.80;;;17.90;71.30;;;;;;5430722;26;20007;-58
2024/04/16 01:28:10;;;;;;;3.55;1.00;;;17.90;71.20;;;;;;5431233;26;19999;-59
2024/04/16 01:30:36;;;;;;;2.80;0.90;;;17.90;71.20;;;;;;5419263;26;20010;-58
2024/04/16 01:33:01;;;;;;;3.80;1.00;;;17.90;71.20;;;;;;5434247;26;20349;-58
2024/04/16 01:35:27;;;;;;;2.08;0.80;;;17.90;71.20;;;;;;5425586;26;20014;-58
2024/04/16 01:37:52;;;;;;;3.15;0.90;;;17.80;71.20;;;;;;5436707;26;20014;-58
2024/04/16 01:40:18;;;;;;;3.83;1.08;;;17.80;71.20;;;;;;5439419;26;20011;-58
2024/04/16 01:42:43;;;;;;;2.95;0.93;;;17.80;71.20;;;;;;5422563;26;20011;-58
2024/04/16 01:45:09;;;;;;;3.25;1.10;;;17.80;71.20;;;;;;5427177;26;20011;-58
2024/04/16 01:47:34;;;;;;;3.80;1.00;;;17.80;71.20;;;;;;5429993;26;20014;-58
2024/04/16 01:50:00;;;;;;;4.18;1.08;;;17.80;71.20;;;;;;5420093;26;19996;-58
2024/04/16 01:52:26;;;;;;;3.65;1.08;;;17.80;71.20;;;;;;5424017;26;19995;-58
2024/04/16 01:54:51;;;;;;;2.72;0.80;;;17.80;71.30;;;;;;5426233;26;20010;-58
2024/04/16 01:57:17;;;;;;;5.38;1.02;;;17.80;71.30;;;;;;5419164;26;20003;-58
2024/04/16 01:59:42;;;;;;;3.92;1.10;;;17.80;71.30;;;;;;5426409;26;19999;-59
2024/04/16 02:02:08;;;;;;;4.45;1.13;;;17.70;71.20;;;;;;5440629;26;20013;-59
2024/04/16 02:04:34;;;;;;;3.65;1.02;;;17.70;71.30;;;;;;5427792;26;20006;-59
2024/04/16 02:06:59;;;;;;;4.38;1.10;;;17.70;71.20;;;;;;5431429;26;20003;-59
2024/04/16 02:09:25;;;;;;;3.42;1.00;;;17.70;71.30;;;;;;5448587;26;21134;-59
2024/04/16 02:11:53;;;;;;;3.70;1.00;;;17.70;71.30;;;;;;5445065;26;19995;-60
2024/04/16 02:14:18;;;;;;;2.78;0.90;;;17.60;71.20;;;;;;5446912;26;19999;-59
2024/04/16 02:16:44;;;;;;;1.85;0.80;;;17.70;71.30;;;;;;5445551;26;20002;-59
2024/04/16 02:19:09;;;;;;;3.30;0.80;;;17.70;71.20;;;;;;5446357;26;20014;-60
2024/04/16 02:21:38;;;;;;;4.20;1.02;;;17.70;71.20;;;;;;5426851;26;19996;-59
2024/04/16 02:24:04;;;;;;;3.92;1.05;;;17.60;71.20;;;;;;5449200;26;20017;-60
2024/04/16 02:26:29;;;;;;;3.03;0.90;;;17.60;71.20;;;;;;5437844;26;19996;-59
2024/04/16 02:28:55;;;;;;;4.05;1.00;;;17.60;71.20;;;;;;5445381;26;20072;-59
2024/04/16 02:31:20;;;;;;;3.78;1.13;;;17.60;71.20;;;;;;5441959;26;20045;-60
2024/04/16 02:33:46;;;;;;;3.42;0.88;;;17.60;71.20;;;;;;5429975;26;19999;-60
2024/04/16 02:36:12;;;;;;;4.30;1.13;;;17.60;71.20;;;;;;5449053;26;20023;-59
2024/04/16 02:38:37;;;;;;;4.75;0.93;;;17.60;71.20;;;;;;5441974;26;19999;-59
2024/04/16 02:41:03;;;;;;;3.38;1.00;;;17.60;71.30;;;;;;5445566;26;20006;-59
2024/04/16 02:43:29;;;;;;;3.25;0.93;;;17.60;71.30;;;;;;5449152;26;20479;-59
2024/04/16 02:45:55;;;;;;;6.00;1.20;;;17.50;71.30;;;;;;5440812;26;20003;-59
2024/04/16 02:48:20;;;;;;;3.35;0.80;;;17.50;71.20;;;;;;5447481;26;19999;-59
2024/04/16 02:50:51;;;;;;;2.03;0.85;;;17.50;71.20;;;;;;5448417;26;20505;-59
2024/04/16 02:53:17;;;;;;;3.13;1.02;;;17.50;71.20;;;;;;5428615;26;20010;-59
2024/04/16 02:55:43;;;;;;;3.22;0.98;;;17.50;71.30;;;;;;5440683;26;20007;-60
2024/04/16 02:58:08;;;;;;;3.15;1.00;;;17.50;71.30;;;;;;5431530;26;20342;-59
2024/04/16 03:00:37;;;;;;;5.20;1.10;;;17.50;71.30;;;;;;5434007;26;19999;-60
2024/04/16 03:03:08;;;;;;;2.75;0.90;;;17.50;71.20;;;;;;5435741;26;20054;-59
2024/04/16 03:05:33;;;;;;;3.13;1.00;;;17.50;71.20;;;;;;5446512;26;19999;-59
2024/04/16 03:07:59;;;;;;;3.40;0.98;;;17.50;71.20;;;;;;5440587;26;20010;-59
2024/04/16 03:10:24;;;;;;;4.07;1.05;;;17.50;71.20;;;;;;5443836;26;20013;-59
2024/04/16 03:12:54;;;;;;;3.38;0.95;;;17.50;71.20;;;;;;5438715;26;20078;-59
2024/04/16 03:15:20;;;;;;;3.92;1.30;;;17.50;71.20;;;;;;5443316;26;20009;-59
2024/04/16 03:17:46;;;;;;;4.15;0.85;;;17.50;71.20;;;;;;5413142;26;20003;-58
2024/04/16 03:20:11;;;;;;;3.38;1.00;;;17.50;71.10;;;;;;5433865;26;20014;-58
2024/04/16 03:22:37;;;;;;;3.20;1.00;;;17.50;71.30;;;;;;5425576;26;20008;-59
2024/04/16 03:25:03;;;;;;;3.80;0.95;;;17.50;71.30;;;;;;5436179;26;19995;-58
2024/04/16 03:27:29;;;;;;;3.47;0.93;;;17.50;71.30;;;;;;5417133;26;20022;-58
2024/04/16 03:29:54;;;;;;;2.40;0.90;;;17.50;71.30;;;;;;5429143;26;19999;-58
2024/04/16 03:32:21;;;;;;;3.58;1.00;;;17.50;71.30;;;;;;5428948;26;19999;-58
2024/04/16 03:34:47;;;;;;;3.90;0.98;;;17.50;71.20;;;;;;5430530;26;20019;-59
2024/04/16 03:37:12;;;;;;;5.03;1.33;;;17.50;71.20;;;;;;5439914;26;19995;-58
2024/04/16 03:39:38;;;;;;;3.25;0.90;;;17.50;71.20;;;;;;5429880;26;19996;-58
2024/04/16 03:42:04;;;;;;;3.50;1.10;;;17.50;71.20;;;;;;5420835;26;19999;-58
2024/04/16 03:44:29;;;;;;;5.57;1.15;;;17.50;71.20;;;;;;5418368;26;19996;-58
2024/04/16 03:46:56;;;;;;;3.85;0.90;;;17.50;71.10;;;;;;5425554;26;20015;-58
2024/04/16 03:49:25;;;;;;;4.55;1.20;;;17.60;71.10;;;;;;5426782;26;20461;-59
2024/04/16 03:51:50;;;;;;;4.47;1.10;;;17.60;71.10;;;;;;5420221;26;20003;-59
2024/04/16 03:54:16;;;;;;;5.93;1.40;;;17.60;71.10;;;;;;5424842;26;20547;-59
2024/04/16 03:56:42;;;;;;;3.33;0.98;;;17.60;71.00;;;;;;5428151;26;20010;-59
2024/04/16 03:59:37;;;;;;;2.40;0.90;;;17.60;71.00;;;;;;5426509;26;19999;-59
2024/04/16 04:02:02;;;;;;;4.05;1.15;;;17.70;71.10;;;;;;5436161;26;20015;-59
2024/04/16 04:04:27;;;;;;;4.93;1.00;;;17.60;71.00;;;;;;5431748;26;20861;-59
2024/04/16 04:06:55;;;;;;;2.83;0.95;;;17.70;71.00;;;;;;5427565;26;20015;-59
2024/04/16 04:09:21;;;;;;;2.92;1.02;;;17.70;71.00;;;;;;5435764;26;19998;-59
2024/04/16 04:11:46;;;;;;;4.75;0.93;;;17.70;71.00;;;;;;5432196;26;20000;-59
2024/04/16 04:14:12;;;;;;;4.47;1.23;;;17.70;72.10;;;;;;5418997;26;20007;-59
2024/04/16 04:16:40;;;;;;;8.07;2.45;;;17.70;72.30;;;;;;5423138;26;19998;-59
2024/04/16 04:19:05;;;;;;;5.07;1.00;;;17.80;73.80;;;;;;5421769;26;19999;-58
2024/04/16 04:21:31;;;;;;;5.00;1.10;;;17.80;73.40;;;;;;5418606;26;20010;-58
2024/04/16 04:23:56;;;;;;;4.47;1.17;;;17.80;72.90;;;;;;5431804;26;20101;-58
2024/04/16 04:26:23;;;;;;;4.30;0.93;;;17.80;72.70;;;;;;5430767;26;20027;-59
2024/04/16 04:28:49;;;;;;;3.97;1.17;;;17.90;73.00;;;;;;5430624;26;20000;-59
2024/04/16 04:31:19;;;;;;;3.55;1.00;;;17.90;72.60;;;;;;5423442;26;20024;-59
2024/04/16 04:33:45;;;;;;;4.57;0.80;;;17.90;72.30;;;;;;5430135;26;20006;-58
2024/04/16 04:36:12;;;;;;;3.92;1.00;;;17.90;72.10;;;;;;5431355;26;20003;-58
2024/04/16 04:38:38;;;;;;;3.88;0.90;;;17.90;71.90;;;;;;5427651;26;21177;-58
2024/04/16 04:41:05;;;;;;;2.38;0.80;;;17.90;71.80;;;;;;5417667;26;20004;-59
2024/04/16 04:43:33;;;;;;;4.15;1.00;;;17.90;71.80;;;;;;5431814;26;20007;-59
2024/04/16 04:45:59;;;;;;;2.75;0.93;;;18.00;71.80;;;;;;5422600;26;20013;-59
2024/04/16 04:48:24;;;;;;;3.05;1.00;;;18.00;71.60;;;;;;5423848;26;20373;-58
2024/04/16 04:50:50;;;;;;;3.90;1.05;;;18.00;71.70;;;;;;5431612;26;20034;-59
2024/04/16 04:53:15;;;;;;;5.43;0.98;;;18.00;71.50;;;;;;5425105;26;20018;-59
2024/04/16 04:55:41;;;;;;;1.85;0.80;;;18.00;71.60;;;;;;5425797;26;19996;-58
2024/04/16 04:58:07;;;;;;;3.92;1.17;;;18.00;71.50;;;;;;5431988;26;19999;-59
2024/04/16 05:00:33;;;;;;;3.00;1.02;;;18.00;71.50;;;;;;5422511;26;20073;-59
2024/04/16 05:02:58;;;;;;;3.20;1.00;;;18.00;71.50;;;;;;5427167;26;20074;-59
2024/04/16 05:05:24;;;;;;;2.55;1.00;;;18.00;71.50;;;;;;5428834;26;20043;-59
2024/04/16 05:07:49;;;;;;;2.65;0.90;;;18.00;71.50;;;;;;5433065;26;20010;-59
2024/04/16 05:10:15;;;;;;;3.83;1.00;;;18.00;71.90;;;;;;5420822;26;20017;-59
2024/04/16 05:12:41;;;;;;;2.88;0.90;;;18.00;72.00;;;;;;5422562;26;20016;-60
2024/04/16 05:15:07;;;;;;;3.53;0.95;;;18.00;71.80;;;;;;5422471;26;20013;-60
2024/04/16 05:17:32;;;;;;;4.03;1.00;;;18.00;71.80;;;;;;5427601;26;20010;-59
2024/04/16 05:20:01;;;;;;;3.78;1.00;;;18.00;71.90;;;;;;5433967;26;20427;-59
2024/04/16 05:22:26;;;;;;;3.83;1.00;;;18.00;71.70;;;;;;5423288;26;20465;-59
2024/04/16 05:24:52;;;;;;;2.40;0.80;;;18.00;71.50;;;;;;5425663;26;20072;-59
2024/04/16 05:27:18;;;;;;;3.38;0.90;;;18.00;71.50;;;;;;5434974;26;20568;-60
2024/04/16 05:29:43;;;;;;;2.53;1.05;;;18.00;71.50;;;;;;5430776;26;20010;-60
2024/04/16 05:32:11;;;;;;;3.60;1.10;;;18.00;71.40;;;;;;5429520;26;20014;-60
2024/04/16 05:34:36;;;;;;;4.22;1.25;;;18.10;72.00;;;;;;5425496;26;20011;-59
2024/04/16 05:37:03;;;;;;;5.20;1.10;;;18.10;71.60;;;;;;5445670;26;20052;-60
2024/04/16 05:39:30;;;;;;;3.50;1.02;;;18.10;71.60;;;;;;5438907;26;20003;-60
2024/04/16 05:41:58;;;;;;;3.90;1.00;;;18.10;71.60;;;;;;5438903;26;20006;-60
2024/04/16 05:44:24;;;;;;;3.53;0.90;;;18.10;71.70;;;;;;5447888;26;20011;-60
2024/04/16 05:46:50;;;;;;;3.70;1.10;;;18.10;71.90;;;;;;5439212;26;19995;-60
2024/04/16 05:49:15;;;;;;;4.60;1.00;;;18.10;72.10;;;;;;5426574;26;20006;-62
2024/04/16 05:51:41;;;;;;;4.88;1.05;;;18.10;72.40;;;;;;5429593;26;20013;-60
2024/04/16 05:54:07;;;;;;;2.92;0.90;;;18.20;72.70;;;;;;5437548;26;19999;-60
2024/04/16 05:56:36;;;;;;;3.58;1.02;;;18.20;72.50;;;;;;5429968;26;20010;-59
2024/04/16 05:59:04;;;;;;;3.35;1.00;;;18.20;72.50;;;;;;5451234;26;20003;-60
2024/04/16 06:01:30;;;;;;;3.95;1.10;;;18.20;72.60;;;;;;5429985;26;20088;-59
2024/04/16 06:03:56;;;;;;;3.80;1.20;;;18.20;72.50;;;;;;5425873;26;20051;-59
2024/04/16 06:06:21;;;;;;;3.75;1.10;;;18.20;72.40;;;;;;5431555;26;20006;-60
2024/04/16 06:08:47;;;;;;;2.92;1.00;;;18.30;72.40;;;;;;5445674;26;19995;-60
2024/04/16 06:11:13;;;;;;;4.25;0.98;;;18.20;72.30;;;;;;5434031;26;20006;-60
2024/04/16 06:13:38;;;;;;;3.67;1.00;;;18.30;72.40;;;;;;5431157;26;20035;-59
2024/04/16 06:16:04;;;;;;;4.45;1.00;;;18.20;72.50;;;;;;5428509;26;20015;-59
2024/04/16 06:18:30;;;;;;;9.40;1.83;;;18.20;72.90;;;;;;5433094;26;20002;-59
2024/04/16 06:20:56;;;;;;;4.03;1.10;;;18.20;73.50;;;;;;5431137;26;20010;-59
2024/04/16 06:23:22;;;;;;;6.10;1.40;;;18.20;74.00;;;;;;5422168;26;19995;-59
2024/04/16 06:25:48;;;;;;;3.30;1.13;;;18.20;74.10;;;;;;5429133;26;19999;-59
2024/04/16 06:28:14;;;;;;;6.78;1.15;;;18.20;74.20;;;;;;5428356;26;20393;-59
2024/04/16 06:30:42;;;;;;;5.32;1.25;;;18.20;74.40;;;;;;5443145;26;20018;-60
2024/04/16 06:33:08;;;;;;;3.42;1.00;;;18.20;74.30;;;;;;5436388;26;20022;-59
2024/04/16 06:35:34;;;;;;;4.18;1.00;;;18.20;74.20;;;;;;5439689;26;20458;-59
2024/04/16 06:38:00;;;;;;;4.38;1.20;;;18.20;73.90;;;;;;5421869;26;20003;-59
2024/04/16 06:40:25;;;;;;;4.25;1.27;;;18.10;73.80;;;;;;5422858;26;20035;-59
2024/04/16 06:42:54;;;;;;;2.75;0.90;;;18.10;73.60;;;;;;5437266;26;19995;-59
2024/04/16 06:45:23;;;;;;;4.53;1.20;;;18.10;73.60;;;;;;5433905;26;20049;-60
2024/04/16 06:47:48;;;;;;;4.57;1.27;;;18.10;73.50;;;;;;5418366;26;20808;-59
2024/04/16 06:50:17;;;;;;;4.35;1.00;;;18.10;73.40;;;;;;5421681;26;20013;-59
2024/04/16 06:52:42;;;;;;;3.13;1.10;;;18.10;73.30;;;;;;5413992;26;20011;-59
2024/04/16 06:55:10;;;;;;;3.53;0.90;;;18.00;73.30;;;;;;5425492;26;20042;-59
2024/04/16 06:57:36;;;;;;;4.40;1.20;;;18.00;73.30;;;;;;5422883;26;20092;-59
2024/04/16 07:00:01;;;;;;;5.18;1.30;;;18.10;73.20;;;;;;5421917;26;20011;-59
2024/04/16 07:02:29;;;;;;;6.00;1.30;;;18.00;73.10;;;;;;5428170;26;20027;-59
2024/04/16 07:04:55;;;;;;;4.05;0.98;;;18.00;73.00;;;;;;5422346;26;20011;-59
2024/04/16 07:07:20;;;;;;;2.75;1.00;;;18.00;73.00;;;;;;5425890;26;19998;-59
2024/04/16 07:09:46;;;;;;;3.88;0.90;;;18.00;72.90;;;;;;5426556;26;19995;-58
2024/04/16 07:12:12;;;;;;;5.60;1.15;;;17.90;72.90;;;;;;5424954;26;20015;-59
2024/04/16 07:14:37;;;;;;;2.17;0.85;;;18.00;73.00;;;;;;5425688;26;20019;-59
2024/04/16 07:17:03;;;;;;;4.55;1.10;;;17.90;72.90;;;;;;5426856;26;20003;-59
2024/04/16 07:19:29;;;;;;;3.63;1.00;;;17.90;72.90;;;;;;5430774;26;20000;-59
2024/04/16 07:21:54;;;;;;;3.28;1.00;;;17.90;72.90;;;;;;5417752;26;19999;-59
2024/04/16 07:24:20;;;;;;;3.75;1.10;;;17.90;72.80;;;;;;5429985;26;20018;-59
2024/04/16 07:26:45;;;;;;;4.85;1.13;;;17.90;72.90;;;;;;5426910;26;20022;-59
2024/04/16 07:29:11;;;;;;;3.05;0.95;;;17.80;72.80;;;;;;5428082;26;19999;-59
2024/04/16 07:31:37;;;;;;;5.47;1.50;;;17.90;72.80;;;;;;5421899;26;20003;-59
2024/04/16 07:34:02;;;;;;;2.35;0.90;;;17.80;72.80;;;;;;5418359;26;20026;-59
2024/04/16 07:36:28;;;;;;;5.75;1.23;;;17.80;72.80;;;;;;5426513;26;20061;-59
2024/04/16 07:38:53;;;;;;;3.10;1.02;;;17.80;72.80;;;;;;5425236;26;20007;-59
2024/04/16 07:41:19;;;;;;;2.40;0.90;;;17.80;72.80;;;;;;5423480;26;20111;-59
2024/04/16 07:43:45;;;;;;;4.10;1.00;;;17.80;72.80;;;;;;5423550;26;20023;-59
2024/04/16 07:46:10;;;;;;;4.40;1.08;;;17.80;72.70;;;;;;5424014;26;19995;-59
2024/04/16 07:48:36;;;;;;;2.10;0.90;;;17.70;72.70;;;;;;5422286;26;19999;-59
2024/04/16 07:51:04;;;;;;;3.03;0.95;;;17.80;72.70;;;;;;5425662;26;20013;-59
2024/04/16 07:53:31;;;;;;;3.45;0.98;;;17.70;72.70;;;;;;5422701;26;20064;-59
2024/04/16 07:55:57;;;;;;;3.58;0.93;;;17.70;72.60;;;;;;5424952;26;19994;-59
2024/04/16 07:58:22;;;;;;;4.10;0.93;;;17.70;72.60;;;;;;5418354;26;20015;-59
2024/04/16 08:00:50;;;;;;;2.60;0.98;;;17.70;72.70;;;;;;5425736;26;20691;-58
2024/04/16 08:03:16;;;;;;;3.47;1.00;;;17.70;72.70;;;;;;5424473;26;20010;-59
2024/04/16 08:05:44;;;;;;;3.42;1.50;;;17.70;72.60;;;;;;5420243;26;20027;-59
2024/04/16 08:08:09;;;;;;;3.20;0.90;;;17.60;72.60;;;;;;5418716;26;20071;-59
2024/04/16 08:10:35;;;;;;;3.28;1.00;;;17.60;72.60;;;;;;5437426;26;20451;-59
2024/04/16 08:13:00;;;;;;;4.68;1.00;;;17.60;72.60;;;;;;5423629;26;20011;-58
2024/04/16 08:15:26;;;;;;;3.38;1.08;;;17.60;72.70;;;;;;5422550;26;19999;-58
2024/04/16 08:17:52;;;;;;;3.22;0.98;;;17.60;72.60;;;;;;5425041;26;19995;-59
2024/04/16 08:20:17;;;;;;;2.35;0.90;;;17.60;72.60;;;;;;5417208;26;19996;-58
2024/04/16 08:22:43;;;;;;;2.53;0.90;;;17.50;72.60;;;;;;5418827;26;20028;-59
2024/04/16 08:25:08;;;;;;;3.70;1.00;;;17.60;72.60;;;;;;5423448;26;19996;-58
2024/04/16 08:27:34;;;;;;;4.10;1.10;;;17.50;72.70;;;;;;5421066;26;20015;-59
2024/04/16 08:30:00;;;;;;;2.38;0.80;;;17.50;72.70;;;;;;5432310;26;20003;-58
2024/04/16 08:32:25;;;;;;;2.53;0.98;;;17.50;72.70;;;;;;5424424;26;20002;-59
2024/04/16 08:34:51;;;;;;;3.80;1.27;;;17.50;72.80;;;;;;5421055;26;20010;-59
2024/04/16 08:37:16;;;;;;;3.28;0.95;;;17.50;72.70;;;;;;5430042;26;20551;-59
2024/04/16 08:39:42;;;;;;;4.82;1.10;;;17.40;72.80;;;;;;5424262;26;20382;-59
2024/04/16 08:42:08;;;;;;;2.17;0.90;;;17.40;72.70;;;;;;5432251;26;20076;-59
2024/04/16 08:44:34;;;;;;;2.47;1.00;;;17.50;72.80;;;;;;5420197;26;20010;-59
2024/04/16 08:47:01;;;;;;;3.13;1.17;;;17.40;72.80;;;;;;5422800;26;20015;-58
2024/04/16 08:49:30;;;;;;;2.55;0.85;;;17.40;72.90;;;;;;5431643;26;20092;-58
2024/04/16 08:51:57;;;;;;;3.40;0.90;;;17.40;73.10;;;;;;5417721;26;20000;-58
2024/04/16 08:54:23;;;;;;;2.50;0.85;;;17.40;73.20;;;;;;5417168;26;20003;-58
2024/04/16 08:56:50;;;;;;;2.88;0.90;;;17.40;73.20;;;;;;5422098;26;20064;-58
2024/04/16 08:59:16;;;;;;;1.88;0.80;;;17.40;73.30;;;;;;5417283;26;20405;-59
2024/04/16 09:01:44;;;;;;;3.30;0.90;;;17.40;73.30;;;;;;5420423;26;20011;-58
2024/04/16 09:04:15;;;;;;;3.15;0.93;;;17.50;73.40;;;;;;5424539;26;20022;-58
2024/04/16 09:06:43;;;;;;;2.08;0.77;;;17.50;73.60;;;;;;5421704;26;20030;-59
2024/04/16 09:09:09;;;;;;;3.17;0.85;;;17.50;73.60;;;;;;5422574;26;20674;-58
2024/04/16 09:11:35;;;;;;;3.83;0.93;;;17.50;73.70;;;;;;5417598;26;19999;-58
2024/04/16 09:14:00;;;;;;;5.47;1.13;;;17.50;73.80;;;;;;5425859;26;20421;-59
2024/04/16 09:16:26;;;;;;;4.90;1.10;;;17.50;73.80;;;;;;5422517;26;20014;-59
2024/04/16 09:19:04;;;;;;;6.28;1.55;;;17.50;73.90;;;;;;5420616;26;20047;-59
2024/04/16 09:21:29;;;;;;;3.55;1.10;;;17.60;73.80;;;;;;5415484;26;20641;-59
2024/04/16 09:23:55;;;;;;;2.47;0.98;;;17.60;73.90;;;;;;5427330;26;20010;-59
2024/04/16 09:26:20;;;;;;;3.05;0.98;;;17.60;74.00;;;;;;5418762;26;19999;-59
2024/04/16 09:28:48;;;;;;;3.33;1.17;;;17.60;74.10;;;;;;5415312;26;20007;-58
2024/04/16 09:31:16;;;;;;;3.40;1.10;;;17.60;74.20;;;;;;5423792;26;19996;-59
2024/04/16 09:33:42;;;;;;;3.55;1.13;;;17.60;74.60;;;;;;5422321;26;20054;-59
2024/04/16 09:36:17;;;;;;;4.40;1.42;;;17.60;74.20;;;;;;5432572;26;19998;-59
2024/04/16 09:38:46;;;;;;;2.70;1.00;;;17.60;74.30;;;;;;5421457;26;20003;-59
2024/04/16 09:41:13;;;;;;;3.03;1.30;;;17.60;74.30;;;;;;5428926;26;20007;-58
2024/04/16 09:43:41;;;;;;;4.03;1.20;;;17.60;74.30;;;;;;5416218;26;20069;-59
2024/04/16 09:46:15;;;;;;;2.67;1.05;;;17.50;74.40;;;;;;5419585;26;20832;-59
2024/04/16 09:48:42;;;;;;;2.90;1.10;;;17.50;74.50;;;;;;5415902;26;20000;-59
2024/04/16 09:51:08;;;;;;;4.47;1.20;;;17.50;74.70;;;;;;5424143;26;19999;-59
2024/04/16 09:53:39;;;;;;;3.40;1.00;;;17.50;74.70;;;;;;5420151;26;21112;-59
2024/04/16 09:56:05;;;;;;;4.43;1.20;;;17.50;74.80;;;;;;5428014;26;20003;-59
2024/04/16 09:58:33;;;;;;;4.30;1.17;;;17.50;75.00;;;;;;5425339;26;20007;-59
2024/04/16 10:00:59;;;;;;;4.30;1.33;;;17.50;75.20;;;;;;5417243;26;19995;-59
2024/04/16 10:03:27;;;;;;;5.25;1.95;;;17.50;75.30;;;;;;5423554;26;20005;-59
2024/04/16 10:05:55;;;;;;;4.40;1.30;;;17.50;75.50;;;;;;5417012;26;20058;-59
2024/04/16 10:08:23;;;;;;;3.40;1.20;;;17.50;75.60;;;;;;5421057;26;20047;-59
2024/04/16 10:10:49;;;;;;;5.38;1.30;;;17.50;75.80;;;;;;5436655;26;19998;-59
2024/04/16 10:13:15;;;;;;;4.28;1.40;;;17.50;75.90;;;;;;5415175;26;20073;-59
2024/04/16 10:15:45;;;;;;;4.13;1.20;;;17.50;75.80;;;;;;5420534;26;20010;-59
2024/04/16 10:18:14;;;;;;;6.20;1.45;;;17.50;75.90;;;;;;5417649;26;20076;-59
2024/04/16 10:20:49;;;;;;;5.10;1.55;;;17.50;75.90;;;;;;5423484;26;20007;-59
2024/04/16 10:23:16;;;;;;;3.70;1.33;;;17.40;76.10;;;;;;5426113;26;20002;-59
2024/04/16 10:25:48;;;;;;;3.42;1.27;;;17.50;76.00;;;;;;5421165;26;20000;-59
2024/04/16 10:28:25;;;;;;;4.57;1.38;;;17.40;76.00;;;;;;5428417;26;19999;-59
2024/04/16 10:31:03;;;;;;;3.72;1.25;;;17.40;76.10;;;;;;5426170;26;20004;-58
2024/04/16 10:33:36;;;;;;;6.40;1.50;;;17.40;76.20;;;;;;5424741;26;19996;-60
2024/04/16 10:36:12;;;;;;;3.88;1.33;;;17.40;76.70;;;;;;5422914;26;19998;-59
2024/04/16 10:38:38;;;;;;;4.00;1.33;;;17.40;77.60;;;;;;5426764;26;20384;-59
2024/04/16 10:41:04;;;;;;;6.00;1.52;;;17.40;77.40;;;;;;5424786;26;20007;-59
2024/04/16 10:43:37;;;;;;;5.53;1.80;;;17.40;77.60;;;;;;5428655;26;20646;-59
2024/04/16 10:46:05;;;;;;;7.25;1.70;;;17.40;77.50;;;;;;5422051;26;19999;-60
2024/04/16 10:48:32;;;;;;;7.00;1.70;;;17.40;77.50;;;;;;5428524;26;20005;-60
2024/04/16 10:50:58;;;;;;;5.65;1.38;;;17.40;77.40;;;;;;5432071;26;20745;-59
2024/04/16 10:53:24;;;;;;;4.45;1.40;;;17.40;77.20;;;;;;5446209;26;20072;-59
2024/04/16 10:55:50;;;;;;;4.82;1.40;;;17.40;77.30;;;;;;5428615;26;20023;-59
2024/04/16 10:58:18;;;;;;;4.75;1.30;;;17.40;77.40;;;;;;5420503;26;20511;-59
2024/04/16 11:00:47;;;;;;;7.05;1.40;;;17.40;77.40;;;;;;5428071;26;19995;-59
2024/04/16 11:03:12;;;;;;;6.85;2.00;;;17.40;77.40;;;;;;5433706;26;19999;-59
2024/04/16 11:05:39;;;;;;;7.10;1.58;;;17.40;77.40;;;;;;5417453;26;20007;-59
2024/04/16 11:08:08;;;;;;;4.85;1.45;;;17.40;77.40;;;;;;5424207;26;19995;-60
2024/04/16 11:10:34;;;;;;;4.55;1.30;;;17.40;77.20;;;;;;5422595;26;20088;-59
2024/04/16 11:13:03;;;;;;;4.75;1.42;;;17.40;77.30;;;;;;5425857;26;19999;-60
2024/04/16 11:15:33;;;;;;;5.90;1.50;;;17.40;77.40;;;;;;5420407;26;20007;-59
2024/04/16 11:17:59;;;;;;;;;;;17.40;77.30;;;;;;5415425;26;20652;-60
2024/04/16 11:20:26;;;;;;;4.88;1.17;;;17.40;77.40;;;;;;5424797;26;19925;-59
2024/04/16 11:22:52;;;;;;;5.05;1.10;;;17.40;77.40;;;;;;5410383;26;20065;-59
2024/04/16 11:25:18;;;;;;;5.65;1.52;;;17.40;77.40;;;;;;5428843;26;20472;-59
2024/04/16 11:27:44;;;;;;;6.53;1.40;;;17.40;77.40;;;;;;5424668;26;19996;-59
2024/04/16 11:30:12;;;;;;;7.28;1.50;;;17.40;77.40;;;;;;5422142;26;20069;-60
2024/04/16 11:32:40;;;;;;;8.02;1.65;;;17.40;77.40;;;;;;5419470;26;20010;-59
2024/04/16 11:35:07;;;;;;;5.18;1.30;;;17.40;77.40;;;;;;5413427;26;19995;-60
2024/04/16 11:37:36;;;;;;;5.85;1.48;;;17.40;77.50;;;;;;5436471;26;19994;-59
2024/04/16 11:40:04;;;;;;;5.15;1.38;;;17.40;77.50;;;;;;5422304;26;20000;-59
2024/04/16 11:42:29;;;;;;;6.95;1.50;;;17.40;77.50;;;;;;5416452;26;20014;-59
2024/04/16 11:44:55;;;;;;;4.40;1.30;;;17.40;77.60;;;;;;5422465;26;20011;-60
2024/04/16 11:47:20;;;;;;;6.75;1.40;;;17.40;77.60;;;;;;5422519;26;20015;-59
2024/04/16 11:49:46;;;;;;;3.88;1.25;;;17.40;77.60;;;;;;5428544;26;20011;-60
2024/04/16 11:52:12;;;;;;;4.55;1.25;;;17.40;77.70;;;;;;5419679;26;20581;-60
2024/04/16 11:54:37;;;;;;;3.88;1.05;;;17.40;77.80;;;;;;5427220;26;20071;-60
2024/04/16 11:57:04;;;;;;;3.85;1.30;;;17.40;77.90;;;;;;5423207;26;20350;-60
2024/04/16 11:59:30;;;;;;;5.07;1.50;;;17.40;77.90;;;;;;5416840;26;20644;-60
2024/04/16 12:01:56;;;;;;;4.47;1.20;;;17.50;78.00;;;;;;5426818;26;19999;-59
2024/04/16 12:04:21;;;;;;;7.40;1.48;;;17.40;78.00;;;;;;5419460;26;20003;-60
2024/04/16 12:06:49;;;;;;;6.68;1.60;;;17.50;78.00;;;;;;5433292;26;19996;-60
2024/04/16 12:09:15;;;;;;;6.30;1.60;;;17.50;78.10;;;;;;5426915;26;20414;-60
2024/04/16 12:11:42;;;;;;;8.90;2.00;;;17.50;78.20;;;;;;5422365;26;20072;-59
2024/04/16 12:14:08;;;;;;;8.60;1.80;;;17.50;78.30;;;;;;5429112;26;19998;-60
2024/04/16 12:16:34;;;;;;;7.32;1.40;;;17.50;78.40;;;;;;5416339;26;19996;-60
2024/04/16 12:19:02;;;;;;;4.85;1.40;;;17.50;78.30;;;;;;5427450;26;20007;-59
2024/04/16 12:21:28;;;;;;;4.82;1.20;;;17.60;78.20;;;;;;5421074;26;20020;-60
2024/04/16 12:23:54;;;;;;;4.15;1.20;;;17.60;78.20;;;;;;5419731;26;20015;-59
2024/04/16 12:26:19;;;;;;;5.00;1.08;;;17.60;78.10;;;;;;5413843;26;20421;-59
2024/04/16 12:28:46;;;;;;;3.65;1.10;;;17.60;78.10;;;;;;5422915;26;20037;-59
2024/04/16 12:31:12;;;;;;;3.22;1.00;;;17.60;78.10;;;;;;5425588;26;19999;-60
2024/04/16 12:33:37;;;;;;;4.13;0.93;;;17.60;78.00;;;;;;5425997;26;20002;-60
2024/04/16 12:36:08;;;;;;;3.40;1.10;;;17.60;78.00;;;;;;5417962;26;20010;-59
2024/04/16 12:38:33;;;;;;;2.05;0.90;;;17.60;78.00;;;;;;5422135;26;19999;-60
2024/04/16 12:40:59;;;;;;;2.88;0.88;;;17.60;78.00;;;;;;5428133;26;20443;-59
2024/04/16 12:43:25;;;;;;;3.63;0.98;;;17.60;78.00;;;;;;5416278;26;20015;-59